Seavoyager — 9HUM8 — position and weather

sailwx.info

Track history (hours):
 
Tides and Currents Weather Stations Pressure Air Temp Water Temp Dewpoint Dewpoint Depression Visibility Wind Speed Wind Dir Waves Ship Positions

Seavoyager

Last reported at 2015-Jun-11 09:18 UTC. Time now 2015-Jul-06 20:02 UTC.
Position N 43°53' W 006°05'.
Warning: this ship's position is 25 days out of date.

Length 273 m; draft 10 m.

Type: Ship (hazmat cat A). MMSI: 256439000.

Date/timePositionNaut miles runAvg speedWind from/ knotsBaromVisibWave heightAir tempDewpointWater temp
2015-Jun-11 09:18N 43°53' W 006°05'1113.9
2015-Jun-11 08:31N 43°52' W 005°50'1413.9
2015-Jun-11 07:33N 43°50' W 005°31'1414.3
2015-Jun-11 06:33N 43°48' W 005°12'1414.2
2015-Jun-11 05:33N 43°46' W 004°52'  
2015-Jun-08 14:11N 43°45' W 004°44'1212.3
2015-Jun-08 13:12N 43°47' W 005°01'812.2
2015-Jun-08 12:31N 43°48' W 005°12'1212.4
2015-Jun-08 11:31N 43°50' W 005°29'1312.5
2015-Jun-08 10:30N 43°51' W 005°47'1212.6
2015-Jun-08 09:33N 43°52' W 006°03'  
Track history (hours):
 
Tides and Currents Weather Stations Pressure Air Temp Water Temp Dewpoint Dewpoint Depression Visibility Wind Speed Wind Dir Waves Ship Positions

Seavoyager

Last reported at 2015-Jun-11 09:18 UTC. Time now 2015-Jul-06 20:02 UTC.
Position N 43°53' W 006°05'.
Warning: this ship's position is 25 days out of date.

Length 273 m; draft 10 m.

Type: Ship (hazmat cat A). MMSI: 256439000.

Date/timePositionNaut miles runAvg speedWind from/ knotsBaromVisibWave heightAir tempDewpointWater temp
2015-Jun-11 09:18N 43°53' W 006°05'1113.9
2015-Jun-11 08:31N 43°52' W 005°50'1413.9
2015-Jun-11 07:33N 43°50' W 005°31'1414.3
2015-Jun-11 06:33N 43°48' W 005°12'1414.2
2015-Jun-11 05:33N 43°46' W 004°52'  
2015-Jun-08 14:11N 43°45' W 004°44'1212.3
2015-Jun-08 13:12N 43°47' W 005°01'812.2
2015-Jun-08 12:31N 43°48' W 005°12'1212.4
2015-Jun-08 11:31N 43°50' W 005°29'1312.5
2015-Jun-08 10:30N 43°51' W 005°47'1212.6
2015-Jun-08 09:33N 43°52' W 006°03'  

Dump ship's entire track history